KVTN/VTN METAR and TAF weather

Enter ICAO airport designator
Station Type Date Time Source
KVTN METAR 2020/04/06 10:52 UTC NOAA

KVTN 061052Z AUTO 21004KT 6SM BR CLR 04/02 A2974 RMK AO2 SLP068 T00440022


Station Type Date Time Source
KVTN Decoded METAR 2020/04/06 10:52 UTC NOAA

MILLER FIELD - VALENTINE, NE, NE, United States (KVTN) 42-52N 100-33W 788M
Apr 06, 2020 - 06:52 AM EDT / 2020.04.06 1052 UTC
Wind: from the SSW (210 degrees) at 5 MPH (4 KT):0
Visibility: 6 mile(s):0
Sky conditions: clear
Weather: mist
Temperature: 39.9 F (4.4 C)
Dew Point: 36.0 F (2.2 C)
Relative Humidity: 85%
Pressure (altimeter): 29.74 in. Hg (1007 hPa)
ob: KVTN 061052Z AUTO 21004KT 6SM BR CLR 04/02 A2974 RMK AO2 SLP068 T00440022
cycle: 11

Station Type Date Time Source
KVTN TAF 2020/04/06 06:22 UTC NOAA

TAF KVTN 060520Z 0606/0706 16004KT P6SM SCT120
FM060900 21009KT P6SM SCT200
FM062100 23013KT P6SM SKC
FM070300 22006KT P6SM FEW200

Example: see airport list